Time;durP1;ratioP1;P1;durP2;ratioP2;P2;SDS_P1;SDS_P2;PMS_P1;PMS_P2;Temp;Humidity;BMP_temperature;BMP_pressure;BME280_temperature;BME280_humidity;BME280_pressure;Samples;Min_cycle;Max_cycle;Signal;HPM_P1;HPM_P2
2022/02/20 00:02:19;;;;;;;12.50;1.73;;;25.90;99.90;;;;;;5037221;28;20119;-63
2022/02/20 00:04:46;;;;;;;11.07;1.90;;;26.10;99.90;;;;;;5025865;28;20033;-63
2022/02/20 00:07:14;;;;;;;9.52;1.80;;;26.20;99.90;;;;;;5018354;28;20120;-63
2022/02/20 00:09:43;;;;;;;7.70;1.85;;;26.20;99.90;;;;;;5035076;28;20537;-63
2022/02/20 00:12:11;;;;;;;11.02;1.85;;;26.30;99.90;;;;;;5034406;28;20033;-63
2022/02/20 00:14:38;;;;;;;12.18;2.13;;;26.40;99.90;;;;;;5028078;28;20013;-63
2022/02/20 00:17:06;;;;;;;8.77;1.85;;;26.10;99.90;;;;;;5035732;28;20111;-63
2022/02/20 00:19:33;;;;;;;8.63;1.30;;;26.30;99.90;;;;;;5025326;28;20041;-63
2022/02/20 00:22:00;;;;;;;9.60;2.67;;;26.40;99.90;;;;;;5019266;28;20033;-63
2022/02/20 00:24:28;;;;;;;7.43;1.90;;;26.20;99.90;;;;;;5035785;28;20040;-63
2022/02/20 00:26:55;;;;;;;11.57;2.35;;;26.40;99.90;;;;;;5034831;28;20396;-63
2022/02/20 00:29:23;;;;;;;6.07;2.08;;;26.40;99.90;;;;;;5016647;28;20464;-63
2022/02/20 00:31:50;;;;;;;6.85;1.52;;;26.50;99.90;;;;;;5031037;28;20025;-63
2022/02/20 00:34:18;;;;;;;6.90;1.63;;;26.60;99.90;;;;;;5016867;28;20106;-63
2022/02/20 00:36:45;;;;;;;7.57;1.30;;;26.50;99.90;;;;;;5017596;28;20393;-63
2022/02/20 00:39:13;;;;;;;8.48;1.67;;;26.60;99.90;;;;;;5036476;28;20105;-63
2022/02/20 00:41:40;;;;;;;10.02;2.25;;;26.70;99.90;;;;;;5016015;28;20059;-63
2022/02/20 00:44:08;;;;;;;6.75;1.60;;;26.60;99.90;;;;;;5034979;28;20029;-63
2022/02/20 00:46:36;;;;;;;5.10;1.08;;;26.50;99.90;;;;;;5036089;28;20029;-62
2022/02/20 00:49:03;;;;;;;7.05;1.80;;;26.60;99.90;;;;;;5033816;28;20029;-62
2022/02/20 00:51:31;;;;;;;3.22;1.00;;;26.60;99.90;;;;;;5015979;28;20033;-63
2022/02/20 00:53:58;;;;;;;11.55;2.22;;;27.00;99.90;;;;;;5016135;28;20078;-63
2022/02/20 00:56:25;;;;;;;8.10;1.75;;;27.00;99.90;;;;;;5015996;28;20033;-63
2022/02/20 00:58:53;;;;;;;8.90;2.00;;;27.20;99.90;;;;;;5017072;28;20037;-63
2022/02/20 01:01:20;;;;;;;6.45;1.35;;;27.20;99.90;;;;;;5034958;28;20044;-63
2022/02/20 01:03:48;;;;;;;7.88;1.52;;;27.00;99.90;;;;;;5019014;28;20033;-63
2022/02/20 01:06:16;;;;;;;9.50;2.05;;;27.00;99.90;;;;;;4998280;28;20129;-63
2022/02/20 01:08:43;;;;;;;5.50;1.63;;;27.20;99.90;;;;;;5049409;28;20052;-63
2022/02/20 01:11:11;;;;;;;7.70;1.52;;;27.30;99.90;;;;;;5055476;28;20124;-63
2022/02/20 01:13:39;;;;;;;8.82;1.88;;;27.20;99.90;;;;;;5030527;28;20034;-63
2022/02/20 01:16:07;;;;;;;7.55;1.85;;;27.10;99.90;;;;;;5015124;28;20034;-63
2022/02/20 01:18:34;;;;;;;7.55;1.63;;;27.30;99.90;;;;;;5028609;28;20078;-63
2022/02/20 01:21:02;;;;;;;7.97;1.92;;;27.20;99.90;;;;;;5054374;28;20037;-63
2022/02/20 01:23:29;;;;;;;6.88;1.40;;;27.00;99.90;;;;;;5040026;28;20028;-63
2022/02/20 01:25:57;;;;;;;7.25;1.75;;;27.30;99.90;;;;;;5015620;28;20038;-63
2022/02/20 01:28:24;;;;;;;6.15;1.58;;;27.60;99.90;;;;;;5012673;28;20474;-63
2022/02/20 01:30:52;;;;;;;6.78;1.58;;;27.50;99.90;;;;;;5032114;28;20049;-62
2022/02/20 01:33:19;;;;;;;7.90;1.40;;;27.40;99.90;;;;;;5041508;28;20037;-62
2022/02/20 01:35:47;;;;;;;8.43;2.05;;;27.60;99.90;;;;;;5054680;28;20036;-63
2022/02/20 01:38:15;;;;;;;11.13;2.63;;;27.70;99.90;;;;;;5039523;28;20025;-62
2022/02/20 01:40:44;;;;;;;15.10;2.42;;;27.30;99.90;;;;;;5034788;28;20060;-62
2022/02/20 01:43:12;;;;;;;14.15;3.13;;;27.50;99.90;;;;;;5046232;28;20032;-63
2022/02/20 01:45:41;;;;;;;18.67;2.72;;;27.60;99.90;;;;;;5054631;28;20044;-63
2022/02/20 01:48:08;;;;;;;11.40;2.20;;;27.50;99.90;;;;;;5029012;28;20105;-62
2022/02/20 01:50:36;;;;;;;11.00;2.30;;;27.40;99.90;;;;;;5014964;28;20021;-63
2022/02/20 01:53:04;;;;;;;15.20;2.60;;;27.60;99.90;;;;;;5026851;28;20121;-62
2022/02/20 01:55:31;;;;;;;14.45;2.38;;;27.40;99.90;;;;;;5034419;28;20049;-62
2022/02/20 01:57:59;;;;;;;17.65;2.95;;;27.40;99.90;;;;;;5035146;28;20038;-62
2022/02/20 02:00:26;;;;;;;10.20;2.53;;;27.70;99.90;;;;;;5033865;28;20059;-63
2022/02/20 02:02:54;;;;;;;12.20;2.53;;;27.70;99.90;;;;;;5043797;28;20440;-63
2022/02/20 02:05:22;;;;;;;15.07;2.92;;;27.70;99.90;;;;;;5054310;28;20032;-63
2022/02/20 02:07:51;;;;;;;12.50;2.67;;;27.70;99.90;;;;;;5037866;28;20108;-63
2022/02/20 02:10:18;;;;;;;14.32;3.10;;;27.60;99.90;;;;;;5034172;28;20092;-63
2022/02/20 02:12:46;;;;;;;15.68;2.58;;;27.20;99.90;;;;;;5042043;28;20056;-62
2022/02/20 02:15:14;;;;;;;15.95;2.55;;;27.50;99.90;;;;;;5042720;28;20034;-63
2022/02/20 02:17:42;;;;;;;13.82;2.30;;;27.50;99.90;;;;;;5023054;28;20030;-63
2022/02/20 02:20:10;;;;;;;16.65;2.72;;;27.60;99.90;;;;;;5033417;28;20037;-63
2022/02/20 02:22:37;;;;;;;13.55;3.15;;;27.70;99.90;;;;;;5041272;28;20029;-62
2022/02/20 02:25:07;;;;;;;14.23;3.03;;;27.80;99.90;;;;;;5054054;28;20051;-62
2022/02/20 02:27:38;;;;;;;10.68;2.13;;;28.10;99.90;;;;;;5052928;28;20024;-62
2022/02/20 02:30:09;;;;;;;13.43;2.85;;;27.70;99.90;;;;;;5053934;28;20496;-62
2022/02/20 02:32:37;;;;;;;14.60;4.03;;;27.40;99.90;;;;;;5026104;28;20049;-63
2022/02/20 02:35:05;;;;;;;16.27;2.58;;;27.30;99.90;;;;;;5034004;28;20087;-63
2022/02/20 02:37:32;;;;;;;16.38;2.60;;;27.50;99.90;;;;;;5033108;28;20041;-63
2022/02/20 02:39:59;;;;;;;11.73;2.80;;;27.50;99.90;;;;;;5033846;28;20064;-63
2022/02/20 02:42:27;;;;;;;9.43;2.08;;;27.20;99.90;;;;;;5021493;28;20029;-63
2022/02/20 02:44:55;;;;;;;14.48;2.85;;;27.40;99.90;;;;;;5053374;28;20569;-63
2022/02/20 02:47:22;;;;;;;14.45;2.45;;;27.60;99.90;;;;;;5047872;28;20016;-63
2022/02/20 02:49:49;;;;;;;12.95;2.70;;;27.40;99.90;;;;;;5033623;28;20044;-63
2022/02/20 02:52:17;;;;;;;18.30;2.92;;;27.20;99.90;;;;;;5032957;28;20029;-63
2022/02/20 02:54:44;;;;;;;10.07;2.50;;;27.20;99.90;;;;;;5033342;28;20045;-62
2022/02/20 02:57:12;;;;;;;10.38;2.53;;;27.50;99.90;;;;;;5028017;28;20021;-63
2022/02/20 02:59:40;;;;;;;12.60;2.63;;;27.40;99.90;;;;;;5033454;28;20032;-63
2022/02/20 03:02:08;;;;;;;14.25;2.47;;;27.60;99.90;;;;;;5026444;28;20033;-63
2022/02/20 03:04:36;;;;;;;10.27;3.08;;;27.70;99.90;;;;;;5013370;28;20101;-63
2022/02/20 03:07:04;;;;;;;12.30;2.47;;;27.90;99.90;;;;;;5017395;28;20044;-63
2022/02/20 03:09:32;;;;;;;13.13;2.63;;;27.60;99.90;;;;;;5033109;28;20120;-63
2022/02/20 03:12:00;;;;;;;11.48;2.53;;;27.80;99.90;;;;;;5034711;28;20114;-63
2022/02/20 03:14:27;;;;;;;12.43;2.50;;;28.00;99.90;;;;;;5028554;28;20029;-64
2022/02/20 03:16:55;;;;;;;17.00;3.60;;;27.60;99.90;;;;;;5028714;28;20091;-64
2022/02/20 03:19:22;;;;;;;9.93;2.63;;;27.60;99.90;;;;;;5032482;28;20053;-63
2022/02/20 03:21:50;;;;;;;14.60;2.88;;;27.60;99.90;;;;;;5031515;28;20033;-64
2022/02/20 03:24:18;;;;;;;15.23;2.55;;;27.50;99.90;;;;;;5023467;28;20030;-63
2022/02/20 03:26:45;;;;;;;11.15;2.63;;;27.30;99.90;;;;;;5051239;28;20099;-63
2022/02/20 03:29:13;;;;;;;13.15;2.88;;;27.40;99.90;;;;;;5032880;28;20026;-63
2022/02/20 03:31:40;;;;;;;12.18;2.40;;;27.50;99.90;;;;;;5032311;28;20026;-63
2022/02/20 03:34:08;;;;;;;12.35;2.83;;;27.50;99.90;;;;;;5032085;28;20021;-63
2022/02/20 03:36:35;;;;;;;8.95;2.17;;;27.40;99.90;;;;;;5032823;28;20018;-63
2022/02/20 03:39:03;;;;;;;11.05;2.70;;;27.40;99.90;;;;;;5027877;28;20045;-63
2022/02/20 03:41:30;;;;;;;13.13;2.67;;;27.10;99.90;;;;;;5031974;28;20071;-65
2022/02/20 03:43:58;;;;;;;14.18;2.63;;;27.30;99.90;;;;;;5024119;28;20018;-65
2022/02/20 03:46:25;;;;;;;8.45;2.22;;;27.60;99.90;;;;;;5028620;28;20030;-64
2022/02/20 03:48:53;;;;;;;14.85;2.80;;;27.60;99.90;;;;;;5014905;28;20079;-66
2022/02/20 03:51:20;;;;;;;9.68;2.10;;;27.50;99.90;;;;;;5009327;28;20030;-65
2022/02/20 03:53:47;;;;;;;11.73;3.13;;;27.40;99.90;;;;;;5034771;28;20037;-65
2022/02/20 03:56:15;;;;;;;8.68;2.03;;;27.40;99.90;;;;;;5028573;28;20025;-65
2022/02/20 03:58:42;;;;;;;11.68;2.65;;;27.30;99.90;;;;;;5015314;28;20076;-65
2022/02/20 04:01:09;;;;;;;13.88;2.67;;;27.30;99.90;;;;;;5031305;28;20033;-64
2022/02/20 04:03:37;;;;;;;14.63;3.47;;;27.40;99.90;;;;;;5013156;28;20052;-64
2022/02/20 04:06:04;;;;;;;11.38;3.33;;;27.50;99.90;;;;;;5033330;28;20389;-64
2022/02/20 04:08:32;;;;;;;8.73;2.42;;;27.70;99.90;;;;;;5007903;28;20037;-64
2022/02/20 04:10:59;;;;;;;9.00;1.80;;;27.70;99.90;;;;;;5030471;28;20029;-64
2022/02/20 04:13:27;;;;;;;9.95;2.25;;;27.60;99.90;;;;;;5031039;28;20037;-64
2022/02/20 04:15:54;;;;;;;11.75;2.13;;;27.70;99.90;;;;;;5030384;28;20104;-63
2022/02/20 04:18:21;;;;;;;11.70;2.42;;;27.60;99.90;;;;;;5027301;28;20037;-63
2022/02/20 04:20:49;;;;;;;10.77;2.33;;;27.60;99.90;;;;;;5028639;28;20175;-63
2022/02/20 04:23:16;;;;;;;10.10;2.13;;;27.60;99.90;;;;;;5039098;28;20098;-63
2022/02/20 04:25:43;;;;;;;7.97;1.80;;;27.60;99.90;;;;;;5016185;28;20032;-63
2022/02/20 04:28:11;;;;;;;10.05;2.47;;;27.80;99.90;;;;;;5031443;28;20130;-63
2022/02/20 04:30:39;;;;;;;8.88;1.80;;;27.70;99.90;;;;;;5030125;28;20539;-63
2022/02/20 04:33:06;;;;;;;7.85;2.05;;;27.70;99.90;;;;;;5028658;28;20175;-63
2022/02/20 04:35:34;;;;;;;9.55;2.03;;;27.60;99.90;;;;;;5031610;28;20017;-63
2022/02/20 04:38:01;;;;;;;8.45;2.13;;;27.70;99.90;;;;;;5032849;28;20033;-64
2022/02/20 04:40:28;;;;;;;9.50;2.20;;;27.70;99.90;;;;;;5025309;28;20030;-63
2022/02/20 04:42:56;;;;;;;12.43;2.38;;;27.60;99.90;;;;;;5020331;28;20029;-63
2022/02/20 04:45:23;;;;;;;6.63;1.70;;;27.70;99.90;;;;;;5031367;28;20025;-63
2022/02/20 04:47:50;;;;;;;7.00;1.60;;;27.70;99.90;;;;;;5031935;28;20056;-64
2022/02/20 04:50:17;;;;;;;9.25;2.13;;;27.50;99.90;;;;;;5027407;28;20026;-64
2022/02/20 04:52:45;;;;;;;8.82;2.17;;;27.40;99.90;;;;;;5005859;28;20398;-64
2022/02/20 04:55:12;;;;;;;9.10;1.77;;;27.50;99.90;;;;;;5021178;28;20053;-63
2022/02/20 04:57:41;;;;;;;6.50;1.88;;;27.40;99.90;;;;;;5031270;28;20405;-63
2022/02/20 05:00:11;;;;;;;12.40;2.50;;;27.40;99.90;;;;;;5034687;28;20037;-64
2022/02/20 05:02:38;;;;;;;8.27;1.77;;;27.40;99.90;;;;;;5032746;28;20029;-63
2022/02/20 05:05:07;;;;;;;12.05;2.45;;;27.40;99.90;;;;;;5025032;28;20026;-63
2022/02/20 05:07:35;;;;;;;9.43;2.58;;;27.50;99.90;;;;;;5025922;28;20489;-63
2022/02/20 05:10:03;;;;;;;10.70;2.38;;;27.50;99.90;;;;;;5033704;28;20030;-64
2022/02/20 05:12:30;;;;;;;8.50;2.15;;;27.40;99.90;;;;;;5034889;28;20033;-64
2022/02/20 05:14:57;;;;;;;9.55;2.58;;;27.30;99.90;;;;;;5017754;28;20025;-64
2022/02/20 05:17:25;;;;;;;6.32;1.67;;;27.10;99.90;;;;;;5016999;28;20030;-63
2022/02/20 05:19:52;;;;;;;9.20;2.38;;;27.00;99.90;;;;;;5033700;28;20095;-64
2022/02/20 05:22:19;;;;;;;10.05;1.92;;;26.70;99.90;;;;;;5030940;28;20029;-63
2022/02/20 05:24:49;;;;;;;13.15;2.50;;;26.60;99.90;;;;;;5014497;28;20060;-63
2022/02/20 05:27:17;;;;;;;14.00;2.38;;;26.40;99.90;;;;;;5038263;28;20032;-63
2022/02/20 05:29:44;;;;;;;13.20;2.60;;;26.20;99.90;;;;;;5036451;28;20025;-63
2022/02/20 05:32:11;;;;;;;8.32;1.77;;;26.20;99.90;;;;;;5032537;28;20014;-63
2022/02/20 05:34:39;;;;;;;6.72;1.90;;;26.40;99.90;;;;;;5033544;28;20064;-65
2022/02/20 05:37:07;;;;;;;10.85;2.10;;;26.30;99.90;;;;;;5034233;28;20029;-64
2022/02/20 05:39:34;;;;;;;8.57;2.47;;;26.30;99.90;;;;;;5034119;28;20025;-64
2022/02/20 05:42:01;;;;;;;11.95;2.75;;;26.20;99.90;;;;;;5032562;28;20029;-64
2022/02/20 05:44:29;;;;;;;12.48;2.25;;;26.20;99.90;;;;;;5033509;28;20163;-64
2022/02/20 05:46:56;;;;;;;12.10;1.95;;;26.10;99.90;;;;;;5031056;28;20033;-65
2022/02/20 05:49:23;;;;;;;7.40;2.13;;;26.10;99.90;;;;;;5028583;28;20385;-64
2022/02/20 05:51:51;;;;;;;9.30;2.00;;;26.10;99.90;;;;;;5013600;28;20018;-65
2022/02/20 05:54:18;;;;;;;10.82;2.33;;;26.20;99.90;;;;;;5024927;28;20049;-65
2022/02/20 05:56:46;;;;;;;9.77;2.25;;;26.20;99.90;;;;;;5032603;28;20083;-65
2022/02/20 05:59:13;;;;;;;14.10;2.47;;;26.10;99.90;;;;;;5032934;28;20051;-64
2022/02/20 06:01:40;;;;;;;12.98;2.75;;;26.00;99.90;;;;;;5031049;28;20037;-65
2022/02/20 06:04:08;;;;;;;7.43;2.10;;;26.00;99.90;;;;;;5022949;28;20120;-64
2022/02/20 06:06:35;;;;;;;14.80;2.13;;;26.20;99.90;;;;;;5032882;28;20032;-66
2022/02/20 06:09:03;;;;;;;8.82;2.63;;;26.30;99.90;;;;;;5029310;28;20021;-65
2022/02/20 06:11:30;;;;;;;8.52;2.42;;;26.40;99.90;;;;;;5031983;28;20508;-65
2022/02/20 06:13:58;;;;;;;13.32;3.22;;;26.40;99.90;;;;;;5033836;28;20037;-65
2022/02/20 06:16:25;;;;;;;12.95;2.38;;;26.50;99.90;;;;;;5031801;28;20026;-65
2022/02/20 06:18:52;;;;;;;9.98;2.30;;;26.40;99.90;;;;;;5030509;28;20017;-65
2022/02/20 06:21:19;;;;;;;6.03;1.60;;;26.40;99.90;;;;;;5015052;28;20100;-64
2022/02/20 06:23:46;;;;;;;11.65;2.72;;;26.40;99.90;;;;;;5012907;28;20091;-65
2022/02/20 06:26:14;;;;;;;11.27;2.03;;;26.30;99.90;;;;;;5031016;28;20041;-65
2022/02/20 06:28:41;;;;;;;11.85;2.40;;;26.30;99.90;;;;;;5033114;28;20022;-65
2022/02/20 06:31:08;;;;;;;14.07;2.90;;;26.30;99.90;;;;;;5013113;28;20033;-65
2022/02/20 06:33:36;;;;;;;10.85;2.35;;;26.20;99.90;;;;;;5031141;28;20072;-65
2022/02/20 06:36:03;;;;;;;13.85;2.08;;;26.20;99.90;;;;;;5032821;28;20505;-65
2022/02/20 06:38:30;;;;;;;13.90;2.88;;;26.10;99.90;;;;;;5032247;28;20037;-66
2022/02/20 06:41:01;;;;;;;10.32;2.25;;;26.10;99.90;;;;;;5014698;28;20037;-66
2022/02/20 06:43:28;;;;;;;11.45;2.75;;;26.10;99.90;;;;;;5031963;28;20025;-65
2022/02/20 06:45:56;;;;;;;9.52;1.92;;;26.10;99.90;;;;;;5035551;28;20053;-65
2022/02/20 06:48:24;;;;;;;14.70;2.47;;;26.10;99.90;;;;;;5035705;28;20032;-65
2022/02/20 06:50:51;;;;;;;8.13;2.75;;;26.10;99.90;;;;;;5037400;28;20029;-65
2022/02/20 06:53:18;;;;;;;9.27;1.90;;;26.00;99.90;;;;;;5041049;28;20033;-65
2022/02/20 06:55:46;;;;;;;11.07;2.00;;;26.00;99.90;;;;;;5011957;28;20041;-65
2022/02/20 06:58:13;;;;;;;8.85;2.22;;;25.90;99.90;;;;;;5014404;28;20036;-65
2022/02/20 07:00:42;;;;;;;16.15;2.75;;;25.90;99.90;;;;;;5034181;28;20044;-65
2022/02/20 07:03:09;;;;;;;10.30;2.17;;;25.90;99.90;;;;;;5017135;28;20548;-65
2022/02/20 07:05:36;;;;;;;11.43;2.60;;;25.80;99.90;;;;;;5034156;28;20497;-65
2022/02/20 07:08:04;;;;;;;11.82;1.75;;;25.80;99.90;;;;;;5021363;28;20503;-65
2022/02/20 07:10:31;;;;;;;20.10;3.25;;;25.80;99.90;;;;;;5034280;28;20066;-65
2022/02/20 07:12:58;;;;;;;9.65;2.67;;;25.80;99.90;;;;;;5036343;28;20030;-65
2022/02/20 07:15:26;;;;;;;11.88;2.90;;;25.80;99.90;;;;;;5031980;28;20021;-65
2022/02/20 07:17:54;;;;;;;7.53;2.15;;;25.80;99.90;;;;;;5038596;28;20389;-64
2022/02/20 07:20:21;;;;;;;8.65;2.30;;;25.70;99.90;;;;;;5035094;28;20516;-66
2022/02/20 07:22:48;;;;;;;12.30;2.20;;;25.60;99.90;;;;;;5053558;28;20021;-66
2022/02/20 07:25:16;;;;;;;13.38;3.28;;;25.60;99.90;;;;;;5042940;28;20037;-66
2022/02/20 07:27:45;;;;;;;10.20;2.72;;;25.60;99.90;;;;;;5029077;28;20028;-66
2022/02/20 07:30:14;;;;;;;10.23;2.95;;;25.60;99.90;;;;;;5034651;28;20108;-65
2022/02/20 07:32:41;;;;;;;10.73;2.55;;;25.60;99.90;;;;;;5042345;28;20392;-66
2022/02/20 07:35:09;;;;;;;15.57;2.67;;;25.50;99.90;;;;;;5026112;28;20025;-66
2022/02/20 07:37:36;;;;;;;10.48;2.15;;;25.50;99.90;;;;;;5034641;28;20053;-66
2022/02/20 07:40:05;;;;;;;8.38;2.13;;;25.50;99.90;;;;;;5036042;28;20029;-66
2022/02/20 07:42:33;;;;;;;15.85;2.78;;;25.40;99.90;;;;;;5033281;28;20108;-66
2022/02/20 07:45:00;;;;;;;14.55;2.47;;;25.30;99.90;;;;;;5025529;28;20179;-66
2022/02/20 07:47:28;;;;;;;10.18;2.25;;;25.30;99.90;;;;;;5016569;28;20397;-66
2022/02/20 07:49:55;;;;;;;14.63;3.08;;;25.20;99.90;;;;;;5035641;28;20034;-66
2022/02/20 07:52:24;;;;;;;12.70;3.00;;;25.20;99.90;;;;;;5037834;28;20120;-67
2022/02/20 07:54:52;;;;;;;9.90;2.65;;;25.10;99.90;;;;;;5035630;28;20470;-64
2022/02/20 07:57:21;;;;;;;10.55;2.70;;;25.10;99.90;;;;;;5039658;28;20021;-65
2022/02/20 07:59:48;;;;;;;14.40;2.85;;;25.10;99.90;;;;;;5040411;28;20029;-64
2022/02/20 08:02:16;;;;;;;12.07;2.70;;;25.10;99.90;;;;;;5042728;28;20029;-64
2022/02/20 08:04:43;;;;;;;14.80;3.13;;;25.10;99.90;;;;;;5040576;28;20056;-64
2022/02/20 08:07:10;;;;;;;15.35;3.58;;;25.00;99.90;;;;;;5038801;28;20033;-64
2022/02/20 08:09:37;;;;;;;18.15;3.85;;;25.00;99.90;;;;;;5034781;28;20029;-64
2022/02/20 08:12:05;;;;;;;13.75;2.97;;;25.00;99.90;;;;;;5034731;28;20115;-66
2022/02/20 08:14:32;;;;;;;18.45;3.15;;;24.90;99.90;;;;;;5036136;28;20385;-66
2022/02/20 08:16:59;;;;;;;10.90;2.85;;;24.90;99.90;;;;;;5038425;28;20089;-66
2022/02/20 08:19:27;;;;;;;15.82;3.33;;;24.80;99.90;;;;;;5038139;28;20091;-66
2022/02/20 08:21:54;;;;;;;16.83;2.90;;;24.70;99.90;;;;;;5035553;28;20026;-66
2022/02/20 08:24:21;;;;;;;22.02;3.80;;;24.70;99.90;;;;;;5035584;28;20025;-66
2022/02/20 08:26:48;;;;;;;14.98;4.13;;;24.70;99.90;;;;;;5040266;28;20030;-65
2022/02/20 08:29:21;;;;;;;13.77;3.22;;;24.70;99.90;;;;;;5037264;28;20094;-66
2022/02/20 08:31:49;;;;;;;15.32;3.13;;;24.70;99.90;;;;;;5038229;28;20045;-66
2022/02/20 08:34:16;;;;;;;20.20;4.32;;;24.60;99.90;;;;;;5043865;28;20022;-66
2022/02/20 08:36:44;;;;;;;19.85;3.35;;;24.60;99.90;;;;;;5043561;28;20439;-66
2022/02/20 08:39:11;;;;;;;17.13;3.47;;;24.60;99.90;;;;;;5043123;28;20048;-66
2022/02/20 08:41:39;;;;;;;16.85;3.33;;;24.50;99.90;;;;;;5043590;28;20029;-66
2022/02/20 08:44:07;;;;;;;14.65;3.10;;;24.50;99.90;;;;;;5032014;28;20034;-66
2022/02/20 08:46:34;;;;;;;15.27;3.05;;;24.50;99.90;;;;;;5043804;28;20037;-66
2022/02/20 08:49:01;;;;;;;16.33;3.88;;;24.40;99.90;;;;;;5039328;28;20037;-66
2022/02/20 08:51:28;;;;;;;16.45;3.45;;;24.40;99.90;;;;;;5029707;28;20029;-66
2022/02/20 08:53:56;;;;;;;18.45;4.35;;;24.40;99.90;;;;;;5035165;28;20050;-66
2022/02/20 08:56:26;;;;;;;19.73;4.20;;;24.40;99.90;;;;;;5039393;28;20028;-67
2022/02/20 08:58:55;;;;;;;14.02;3.33;;;24.30;99.90;;;;;;5041754;28;20028;-66
2022/02/20 09:01:24;;;;;;;20.15;4.20;;;24.30;99.90;;;;;;5039989;28;20033;-66
2022/02/20 09:03:52;;;;;;;11.63;3.55;;;24.30;99.90;;;;;;5035377;28;20397;-67
2022/02/20 09:06:19;;;;;;;27.70;4.57;;;24.30;99.90;;;;;;5040149;28;20029;-67
2022/02/20 09:08:47;;;;;;;16.88;3.58;;;24.20;99.90;;;;;;5038377;28;20025;-66
2022/02/20 09:11:14;;;;;;;21.00;3.42;;;24.20;99.90;;;;;;5041666;28;20033;-66
2022/02/20 09:13:41;;;;;;;19.63;3.42;;;24.20;99.90;;;;;;5040299;28;20030;-66
2022/02/20 09:16:09;;;;;;;19.63;3.47;;;24.20;99.90;;;;;;5020772;28;20033;-67
2022/02/20 09:18:36;;;;;;;22.20;4.15;;;24.20;99.90;;;;;;5037374;28;20092;-66
2022/02/20 09:21:03;;;;;;;14.88;4.05;;;24.10;99.90;;;;;;5041354;28;20135;-66
2022/02/20 09:23:31;;;;;;;15.15;3.25;;;24.20;99.90;;;;;;5037612;28;20029;-66
2022/02/20 09:25:58;;;;;;;21.92;4.15;;;24.10;99.90;;;;;;5031436;28;20057;-66
2022/02/20 09:28:26;;;;;;;18.05;3.75;;;24.10;99.90;;;;;;5035000;28;20517;-66
2022/02/20 09:30:53;;;;;;;16.80;3.70;;;24.10;99.90;;;;;;5023197;28;20021;-65
2022/02/20 09:33:20;;;;;;;15.50;3.33;;;24.10;99.90;;;;;;5018749;28;20070;-65
2022/02/20 09:35:48;;;;;;;21.85;4.80;;;24.10;99.90;;;;;;5040718;28;20026;-65
2022/02/20 09:38:16;;;;;;;17.40;3.85;;;24.10;99.90;;;;;;5034872;28;20021;-63
2022/02/20 09:40:45;;;;;;;16.80;3.85;;;24.10;99.90;;;;;;5033202;28;20037;-63
2022/02/20 09:43:16;;;;;;;18.17;4.53;;;24.10;99.90;;;;;;5032785;28;20104;-63
2022/02/20 09:45:51;;;;;;;19.20;4.30;;;24.10;99.90;;;;;;5033548;28;20025;-63
2022/02/20 09:48:19;;;;;;;21.33;3.78;;;24.10;99.90;;;;;;5033969;28;20124;-63
2022/02/20 09:50:47;;;;;;;18.08;4.28;;;24.10;99.90;;;;;;5033353;28;20436;-63
2022/02/20 09:53:14;;;;;;;20.42;3.95;;;24.10;99.90;;;;;;5033370;28;20065;-63
2022/02/20 09:55:46;;;;;;;17.65;4.28;;;24.10;99.90;;;;;;4999401;28;20060;-63
2022/02/20 09:58:14;;;;;;;13.85;3.72;;;24.10;99.90;;;;;;5020036;28;20033;-63
2022/02/20 10:01:08;;;;;;;17.45;3.65;;;24.10;99.90;;;;;;5013963;28;20103;-63
2022/02/20 10:03:38;;;;;;;14.88;3.50;;;24.10;99.90;;;;;;5031217;28;20067;-63
2022/02/20 10:06:09;;;;;;;19.58;3.78;;;24.10;99.90;;;;;;5032653;28;20028;-63
2022/02/20 10:08:48;;;;;;;19.17;3.95;;;24.10;99.90;;;;;;5033577;28;20025;-64
2022/02/20 10:11:26;;;;;;;18.67;3.50;;;24.10;99.90;;;;;;5027486;28;20025;-63
2022/02/20 10:13:56;;;;;;;15.23;3.55;;;24.10;99.90;;;;;;5031709;28;20061;-63
2022/02/20 10:16:29;;;;;;;19.20;3.80;;;24.10;99.90;;;;;;5031735;28;20112;-62
2022/02/20 10:18:59;;;;;;;19.35;3.78;;;24.10;99.90;;;;;;5013807;28;20037;-65
2022/02/20 10:21:32;;;;;;;22.40;4.75;;;24.10;99.90;;;;;;5030763;28;20025;-65
2022/02/20 10:24:13;;;;;;;16.10;4.13;;;24.10;99.90;;;;;;5032550;28;20083;-65
2022/02/20 10:26:46;;;;;;;19.25;3.65;;;24.00;99.90;;;;;;5029367;28;20091;-66
2022/02/20 10:29:18;;;;;;;19.20;4.38;;;24.10;99.90;;;;;;5028989;28;20021;-66
2022/02/20 10:32:00;;;;;;;16.88;3.20;;;24.00;99.90;;;;;;5031335;28;20489;-66
2022/02/20 10:34:31;;;;;;;17.67;4.18;;;24.10;99.90;;;;;;5013964;28;20497;-65
2022/02/20 10:37:05;;;;;;;17.25;3.33;;;24.10;99.90;;;;;;5031456;28;20033;-65
2022/02/20 10:39:33;;;;;;;;;;;24.10;99.90;;;;;;5026477;28;20026;-67
2022/02/20 10:42:16;;;;;;;16.65;3.55;;;24.10;99.90;;;;;;5005709;28;20012;-65
2022/02/20 10:45:01;;;;;;;16.40;3.78;;;24.10;99.90;;;;;;5014884;28;20471;-66
2022/02/20 10:47:31;;;;;;;17.45;3.25;;;24.10;99.90;;;;;;5032213;28;20033;-65
2022/02/20 10:50:21;;;;;;;12.95;3.08;;;24.10;99.90;;;;;;5017003;28;20087;-65
2022/02/20 10:53:08;;;;;;;24.52;3.50;;;24.00;99.90;;;;;;5014217;28;20088;-66
2022/02/20 10:55:47;;;;;;;19.05;3.55;;;24.00;99.90;;;;;;5023062;28;20054;-66
2022/02/20 10:58:23;;;;;;;15.55;3.08;;;24.10;99.90;;;;;;5031899;28;20053;-65
2022/02/20 11:00:54;;;;;;;25.60;5.90;;;24.00;99.90;;;;;;5031960;28;20589;-65
2022/02/20 11:03:24;;;;;;;20.92;5.50;;;24.10;99.90;;;;;;5032190;28;20108;-66
2022/02/20 11:05:52;;;;;;;17.77;4.97;;;24.00;99.90;;;;;;5027173;28;20068;-65
2022/02/20 11:08:24;;;;;;;26.77;4.93;;;24.00;99.90;;;;;;5030745;28;20382;-65
2022/02/20 11:10:54;;;;;;;19.10;4.93;;;24.00;99.90;;;;;;5032393;28;20048;-65
2022/02/20 11:13:22;;;;;;;17.05;4.57;;;24.00;99.90;;;;;;5012280;28;20468;-65
2022/02/20 11:15:52;;;;;;;18.27;4.78;;;23.90;99.90;;;;;;5029988;28;20508;-65
2022/02/20 11:18:21;;;;;;;21.10;5.35;;;23.90;99.90;;;;;;5032504;28;20087;-66
2022/02/20 11:20:53;;;;;;;19.45;5.30;;;23.90;99.90;;;;;;5032330;28;20444;-64
2022/02/20 11:23:26;;;;;;;18.42;5.70;;;23.90;99.90;;;;;;5031722;28;20112;-64
2022/02/20 11:25:55;;;;;;;18.08;5.07;;;23.90;99.90;;;;;;5030934;28;20032;-65
2022/02/20 11:28:22;;;;;;;22.85;5.00;;;23.90;99.90;;;;;;5032029;28;20076;-65
2022/02/20 11:30:50;;;;;;;16.02;4.63;;;23.90;99.90;;;;;;5032288;28;20037;-66
2022/02/20 11:33:17;;;;;;;15.98;4.25;;;23.90;99.90;;;;;;5031728;28;20029;-63
2022/02/20 11:35:48;;;;;;;20.05;5.38;;;23.90;99.90;;;;;;5014032;28;20087;-64
2022/02/20 11:38:21;;;;;;;21.83;4.55;;;23.90;99.90;;;;;;5032152;28;20033;-64
2022/02/20 11:41:02;;;;;;;22.42;4.68;;;23.90;99.90;;;;;;5031485;28;20040;-65
2022/02/20 11:43:49;;;;;;;16.85;3.97;;;23.90;99.90;;;;;;5013610;28;20026;-64
2022/02/20 11:46:22;;;;;;;22.02;4.68;;;23.80;99.90;;;;;;5028171;28;20029;-64
2022/02/20 11:49:09;;;;;;;18.00;4.00;;;23.90;99.90;;;;;;5031193;28;20041;-64
2022/02/20 11:51:36;;;;;;;15.98;4.35;;;23.90;99.90;;;;;;5033329;28;20545;-64
2022/02/20 11:54:23;;;;;;;16.10;4.63;;;23.80;99.90;;;;;;5031495;28;20073;-65
2022/02/20 11:57:28;;;;;;;23.52;5.43;;;23.90;99.90;;;;;;5031506;28;20038;-65
2022/02/20 12:00:06;;;;;;;20.48;4.88;;;23.80;99.90;;;;;;5028892;28;20033;-65
2022/02/20 12:02:33;;;;;;;19.13;5.93;;;23.80;99.90;;;;;;5030225;28;20054;-65
2022/02/20 12:05:06;;;;;;;23.52;9.18;;;23.70;99.90;;;;;;5013416;28;20033;-65
2022/02/20 12:07:46;;;;;;;19.13;6.47;;;23.70;99.90;;;;;;5037890;28;20029;-65
2022/02/20 12:10:28;;;;;;;22.55;5.88;;;23.70;99.90;;;;;;5036778;28;20021;-65
2022/02/20 12:13:19;;;;;;;17.10;5.82;;;23.70;99.90;;;;;;5036602;28;20041;-65
2022/02/20 12:15:48;;;;;;;22.25;5.40;;;23.70;99.90;;;;;;5023162;28;20052;-65
2022/02/20 12:18:19;;;;;;;16.75;4.90;;;23.70;99.90;;;;;;5037219;28;20040;-65
2022/02/20 12:20:55;;;;;;;20.52;4.72;;;23.70;99.90;;;;;;5037856;28;20048;-65
2022/02/20 12:23:29;;;;;;;17.98;4.90;;;23.60;99.90;;;;;;5031988;28;20021;-65
2022/02/20 12:25:57;;;;;;;;;;;23.60;99.90;;;;;;5038313;28;20040;-65
2022/02/20 12:28:38;;;;;;;13.18;4.30;;;23.60;99.90;;;;;;5036099;28;19924;-65
2022/02/20 12:31:14;;;;;;;15.45;4.28;;;23.60;99.90;;;;;;5033091;28;20033;-65
2022/02/20 12:33:49;;;;;;;17.15;5.03;;;23.50;99.90;;;;;;5037840;28;20017;-65
2022/02/20 12:36:27;;;;;;;19.27;5.43;;;23.50;99.90;;;;;;5036105;28;20036;-65
2022/02/20 12:39:02;;;;;;;19.80;5.05;;;23.40;99.90;;;;;;5037330;28;20075;-65
2022/02/20 12:41:30;;;;;;;14.95;4.32;;;23.40;99.90;;;;;;5034293;28;20037;-65
2022/02/20 12:44:01;;;;;;;15.82;4.22;;;23.40;99.90;;;;;;5035129;28;20033;-66
2022/02/20 12:46:29;;;;;;;13.25;4.13;;;23.40;99.90;;;;;;5034060;28;20505;-63
2022/02/20 12:48:57;;;;;;;13.43;3.85;;;23.40;99.90;;;;;;5036319;28;20049;-63
2022/02/20 12:51:25;;;;;;;11.18;4.07;;;23.40;99.90;;;;;;5035074;28;20033;-64